Airfield :
LOGIN :

Register | Disclaimer

   EN    FR    IT 

 










Legend :    VFR   Marginal VFR   IFR   Intensive IFR   Very Intensive IFR
Visi :
Ceiling :
>= 8 km
>= 3000ft
5 to 8 km
1000 to 3000 ft
1500m to 5 km
500 to 1000 ft
800 to 1500m
200 to 500 ft
< 800m
< 200 ft
Symbols :   Thunderstorms  Fog  Heavy snow  Heavy precipitations  Wind > 20 kt
SIGMETs :     Misc.  Thunderstorms  Icing  Turbulence  Mountain Waves  Volcanic Ashes






- Airport Elevation : 183 ft
- IATA code : HAJ


EDDV - Hanover/Langenhagen Int.

CURRENT METAR :
  • 250650Z 27013KT 9999 FEW030 06/02 Q0998 TEMPO 26015G25KT

EXPIRED METARs :
  • 250620Z 27009KT 240V300 9999 FEW030 06/03 Q0997 TEMPO 26015G25KT
  • 250550Z 26009KT 9999 FEW026 06/03 Q0998 TEMPO 26015G25KT
  • 250520Z 27014KT 9999 FEW013 06/03 Q0998 TEMPO 26015G25KT
  • 250450Z 28016KT 240V300 9999 -SHRA FEW013TCU BKN030 07/03 Q0998 TEMPO 26015G25KT
  • 250420Z 28013KT 9999 FEW013TCU 07/05 Q0998 TEMPO 26015G25KT

TAF TAF EDDV
Valid from the 25 at 06:00 until the 26 at 06:00 UTC


250500Z 2506/2606 26015G30KT 9999 SCT035
BECMG 2508/2510 26020G35KT
PROB30
TEMPO 2514/2520 SHRA BKN025CB
BECMG 2515/2517 25015G25KT
BECMG 2517/2519 23006KT
PROB30
TEMPO 2604/2606 4000 SNRA BKN012



MET'MAP, your aeronautical weather chart ! - Copyright ORBIFLY December 2007 - Disclaimer

ORBIFLY MET'MAP TEAM :

Programming & Development : Alexandra Zaïnal
Concept & original design : Baudouin d'Aumeries
Assistance for programming : Marc-Olivier Méhu
Technical & hardware support : Manuel Goepfert

Contact : metmap@orbifly.com




SOURCES & CREDITS :

   NOAA